createdAt,value
2023-02-09T00:01:31.550Z,-1.28
2023-02-09T00:04:00.852Z,-1.31
2023-02-09T00:06:29.877Z,-1.33
2023-02-09T00:08:58.674Z,-1.35
2023-02-09T00:11:47.766Z,-1.39
2023-02-09T00:14:19.202Z,-1.41
2023-02-09T00:16:48.605Z,-1.43
2023-02-09T00:19:15.699Z,-1.44
2023-02-09T00:21:42.683Z,-1.45
2023-02-09T00:24:13.263Z,-1.47
2023-02-09T00:26:41.506Z,-1.49
2023-02-09T00:29:09.420Z,-1.49
2023-02-09T00:31:36.987Z,-1.51
2023-02-09T00:34:05.026Z,-1.53
2023-02-09T00:36:32.430Z,-1.53
2023-02-09T00:38:59.876Z,-1.53
2023-02-09T00:41:45.280Z,-1.52
2023-02-09T00:44:12.500Z,-1.53
2023-02-09T00:46:39.540Z,-1.52
2023-02-09T00:49:06.743Z,-1.53
2023-02-09T00:51:34.480Z,-1.53
2023-02-09T00:54:03.320Z,-1.53
2023-02-09T00:56:30.389Z,-1.51
2023-02-09T00:58:57.315Z,-1.52
2023-02-09T01:01:25.421Z,-1.51
2023-02-09T01:03:53.365Z,-1.51
2023-02-09T01:06:21.026Z,-1.50
2023-02-09T01:08:48.110Z,-1.50
2023-02-09T01:11:16.057Z,-1.50
2023-02-09T01:13:43.765Z,-1.50
2023-02-09T01:16:15.319Z,-1.49
2023-02-09T01:18:43.266Z,-1.50
2023-02-09T01:21:16.989Z,-1.51
2023-02-09T01:23:44.966Z,-1.51
2023-02-09T01:26:13.252Z,-1.51
2023-02-09T01:28:40.982Z,-1.53
2023-02-09T01:31:28.944Z,-1.55
2023-02-09T01:33:58.464Z,-1.56
2023-02-09T01:36:28.906Z,-1.57
2023-02-09T01:39:01.292Z,-1.59
2023-02-09T01:41:28.539Z,-1.59
2023-02-09T01:44:24.623Z,-1.61
2023-02-09T01:46:51.574Z,-1.64
2023-02-09T01:49:23.438Z,-1.65
2023-02-09T01:52:06.082Z,-1.67
2023-02-09T01:54:37.704Z,-1.67
2023-02-09T01:57:18.724Z,-1.69
2023-02-09T01:59:53.773Z,-1.72
2023-02-09T02:02:22.399Z,-1.73
2023-02-09T02:04:51.157Z,-1.74
2023-02-09T02:07:30.294Z,-1.76
2023-02-09T02:10:00.959Z,-1.77
2023-02-09T02:12:28.136Z,-1.78
2023-02-09T02:14:55.093Z,-1.79
2023-02-09T02:17:47.672Z,-1.81
2023-02-09T02:20:48.111Z,-1.82
2023-02-09T02:24:19.281Z,-1.84
2023-02-09T02:26:57.955Z,-1.85
2023-02-09T02:29:59.430Z,-1.87
2023-02-09T02:32:51.200Z,-1.88
2023-02-09T02:35:58.019Z,-1.90
2023-02-09T02:38:54.360Z,-1.92
2023-02-09T02:41:30.380Z,-1.92
2023-02-09T02:44:17.263Z,-1.94
2023-02-09T02:46:52.662Z,-1.94
2023-02-09T02:49:53.134Z,-1.95
2023-02-09T02:52:20.062Z,-1.96
2023-02-09T02:54:57.251Z,-1.99
2023-02-09T02:57:31.244Z,-1.99
2023-02-09T03:00:06.474Z,-2.00
2023-02-09T03:02:40.150Z,-2.04
2023-02-09T03:05:08.495Z,-2.05
2023-02-09T03:07:35.484Z,-2.08
2023-02-09T03:10:03.407Z,-2.09
2023-02-09T03:13:03.876Z,-2.12
2023-02-09T03:16:03.656Z,-2.14
2023-02-09T03:18:56.934Z,-2.15
2023-02-09T03:21:41.301Z,-2.17
2023-02-09T03:24:37.503Z,-2.20
2023-02-09T03:27:25.179Z,-2.23
2023-02-09T03:29:59.086Z,-2.26
2023-02-09T03:32:27.259Z,-2.28
2023-02-09T03:34:56.059Z,-2.31
2023-02-09T03:37:23.854Z,-2.33
2023-02-09T03:39:50.769Z,-2.34
2023-02-09T03:42:17.724Z,-2.38
2023-02-09T03:44:44.633Z,-2.41
2023-02-09T03:47:11.711Z,-2.44
2023-02-09T03:49:41.419Z,-2.49
2023-02-09T03:52:13.236Z,-2.49
2023-02-09T03:54:40.428Z,-2.50
2023-02-09T03:57:07.848Z,-2.51
2023-02-09T03:59:38.096Z,-2.52
2023-02-09T04:02:07.581Z,-2.54
2023-02-09T04:04:34.652Z,-2.56
2023-02-09T04:07:01.576Z,-2.57
2023-02-09T04:09:28.718Z,-2.59
2023-02-09T04:11:55.992Z,-2.60
2023-02-09T04:14:24.218Z,-2.61
2023-02-09T04:16:51.153Z,-2.60
2023-02-09T04:19:18.067Z,-2.61
2023-02-09T04:21:45.008Z,-2.60
2023-02-09T04:24:12.083Z,-2.62
2023-02-09T04:26:39.092Z,-2.64
2023-02-09T04:29:06.084Z,-2.65
2023-02-09T04:31:34.730Z,-2.64
2023-02-09T04:34:01.847Z,-2.66
2023-02-09T04:36:29.005Z,-2.69
2023-02-09T04:38:56.065Z,-2.70
2023-02-09T04:41:23.208Z,-2.72
2023-02-09T04:43:50.224Z,-2.73
2023-02-09T04:46:19.043Z,-2.74
2023-02-09T04:48:46.724Z,-2.74
2023-02-09T04:51:13.931Z,-2.77
2023-02-09T04:53:40.848Z,-2.78
2023-02-09T04:56:08.345Z,-2.80
2023-02-09T04:59:10.355Z,-2.80
2023-02-09T05:01:37.259Z,-2.82
2023-02-09T05:04:04.312Z,-2.83
2023-02-09T05:06:31.237Z,-2.84
2023-02-09T05:08:58.171Z,-2.84
2023-02-09T05:11:25.733Z,-2.85
2023-02-09T05:13:52.715Z,-2.86
2023-02-09T05:16:19.694Z,-2.86
2023-02-09T05:18:46.756Z,-2.87
2023-02-09T05:21:14.323Z,-2.88
2023-02-09T05:23:41.763Z,-2.90
2023-02-09T05:26:09.016Z,-2.91
2023-02-09T05:28:36.395Z,-2.93
2023-02-09T05:31:03.510Z,-2.94
2023-02-09T05:33:30.524Z,-2.94
2023-02-09T05:35:57.416Z,-2.96
2023-02-09T05:38:24.503Z,-2.97
2023-02-09T05:40:51.658Z,-2.97
2023-02-09T05:43:18.908Z,-2.96
2023-02-09T05:45:46.657Z,-2.95
2023-02-09T05:48:13.705Z,-2.94
2023-02-09T05:50:40.711Z,-2.96
2023-02-09T05:53:09.270Z,-2.95
2023-02-09T05:55:36.235Z,-2.96
2023-02-09T05:58:03.274Z,-2.97
2023-02-09T06:00:30.391Z,-2.98
2023-02-09T06:02:58.486Z,-2.97
2023-02-09T06:05:25.907Z,-2.98
2023-02-09T06:07:53.126Z,-2.98
2023-02-09T06:10:20.261Z,-2.99
2023-02-09T06:12:47.349Z,-2.99
2023-02-09T06:15:16.174Z,-2.99
2023-02-09T06:17:43.323Z,-3.00
2023-02-09T06:20:11.195Z,-3.02
2023-02-09T06:22:38.112Z,-3.00
2023-02-09T06:25:05.416Z,-3.04
2023-02-09T06:27:32.349Z,-3.03
2023-02-09T06:29:59.386Z,-3.06
2023-02-09T06:32:26.330Z,-3.08
2023-02-09T06:34:53.286Z,-3.07
2023-02-09T06:37:20.207Z,-3.08
2023-02-09T06:39:47.109Z,-3.09
2023-02-09T06:42:14.010Z,-3.11
2023-02-09T06:44:40.925Z,-3.12
2023-02-09T06:47:07.872Z,-3.13
2023-02-09T06:49:34.769Z,-3.15
2023-02-09T06:52:01.948Z,-3.17
2023-02-09T06:54:29.268Z,-3.17
2023-02-09T06:56:56.222Z,-3.18
2023-02-09T06:59:23.451Z,-3.20
2023-02-09T07:01:54.602Z,-3.21
2023-02-09T07:04:22.260Z,-3.22
2023-02-09T07:06:49.310Z,-3.22
2023-02-09T07:09:16.455Z,-3.21
2023-02-09T07:11:43.768Z,-3.20
2023-02-09T07:14:10.774Z,-3.21
2023-02-09T07:16:37.676Z,-3.19
2023-02-09T07:19:04.582Z,-3.19
2023-02-09T07:21:31.534Z,-3.18
2023-02-09T07:23:58.481Z,-3.17
2023-02-09T07:26:25.507Z,-3.16
2023-02-09T07:28:52.459Z,-3.14
2023-02-09T07:31:19.614Z,-3.12
2023-02-09T07:33:47.005Z,-3.13
2023-02-09T07:36:16.249Z,-3.10
2023-02-09T07:38:43.795Z,-3.08
2023-02-09T07:41:22.085Z,-3.05
2023-02-09T07:43:49.080Z,-3.04
2023-02-09T07:46:19.374Z,-3.00
2023-02-09T07:48:46.890Z,-2.98
2023-02-09T07:51:16.269Z,-2.94
2023-02-09T07:53:43.560Z,-2.89
2023-02-09T07:56:10.469Z,-2.83
2023-02-09T07:58:37.430Z,-2.79
2023-02-09T08:01:08.380Z,-2.72
2023-02-09T08:03:36.922Z,-2.65
2023-02-09T08:06:19.587Z,-2.56
2023-02-09T08:08:49.799Z,-2.49
2023-02-09T08:11:32.655Z,-2.40
2023-02-09T08:14:06.127Z,-2.32
2023-02-09T08:16:34.421Z,-2.25
2023-02-09T08:19:08.778Z,-2.16
2023-02-09T08:21:39.724Z,-2.10
2023-02-09T08:24:07.658Z,-2.02
2023-02-09T08:26:35.643Z,-1.96
2023-02-09T08:29:03.230Z,-1.87
2023-02-09T08:31:30.356Z,-1.79
2023-02-09T08:33:57.325Z,-1.73
2023-02-09T08:36:24.307Z,-1.63
2023-02-09T08:38:51.284Z,-1.54
2023-02-09T08:41:18.575Z,-1.46
2023-02-09T08:43:50.096Z,-1.39
2023-02-09T08:46:18.035Z,-1.32
2023-02-09T08:48:47.055Z,-1.26
2023-02-09T08:51:15.871Z,-1.18
2023-02-09T08:53:43.954Z,-1.14
2023-02-09T08:56:10.878Z,-1.07
2023-02-09T08:58:37.955Z,-1.01
2023-02-09T09:01:05.570Z,-0.95
2023-02-09T09:03:32.805Z,-0.88
2023-02-09T09:06:06.189Z,-0.81
2023-02-09T09:08:35.654Z,-0.75
2023-02-09T09:11:02.630Z,-0.69
2023-02-09T09:13:29.759Z,-0.63
2023-02-09T09:15:56.681Z,-0.58
2023-02-09T09:18:26.470Z,-0.50
2023-02-09T09:20:56.086Z,-0.45
2023-02-09T09:23:23.580Z,-0.37
2023-02-09T09:25:50.609Z,-0.28
2023-02-09T09:28:17.574Z,-0.21
2023-02-09T09:30:44.576Z,-0.16
2023-02-09T09:33:11.608Z,-0.09
2023-02-09T09:35:38.672Z,-0.01
2023-02-09T09:38:05.597Z,0.07
2023-02-09T09:40:37.291Z,0.15
2023-02-09T09:43:14.896Z,0.21
2023-02-09T09:45:42.003Z,0.28
2023-02-09T09:48:25.747Z,0.35
2023-02-09T09:51:15.694Z,0.39
2023-02-09T09:53:46.891Z,0.45
2023-02-09T09:56:15.166Z,0.51
2023-02-09T09:58:44.864Z,0.57
2023-02-09T10:01:18.137Z,0.64
2023-02-09T10:03:45.357Z,0.70
2023-02-09T10:06:19.394Z,0.76
2023-02-09T10:09:07.828Z,0.83
2023-02-09T10:11:45.707Z,0.90
2023-02-09T10:14:12.650Z,0.96
2023-02-09T10:16:40.630Z,1.00
2023-02-09T10:19:23.629Z,1.02
2023-02-09T10:21:50.621Z,1.05
2023-02-09T10:24:30.731Z,1.08
2023-02-09T10:27:14.713Z,1.15
2023-02-09T10:29:42.506Z,1.21
2023-02-09T10:32:38.836Z,1.27
2023-02-09T10:35:29.322Z,1.35
2023-02-09T10:38:02.316Z,1.42
2023-02-09T10:40:33.167Z,1.48
2023-02-09T10:43:09.739Z,1.52
2023-02-09T10:45:46.606Z,1.62
2023-02-09T10:48:13.571Z,1.70
2023-02-09T10:51:01.789Z,1.76
2023-02-09T10:53:37.695Z,1.82
2023-02-09T10:56:22.464Z,1.87
2023-02-09T10:59:00.261Z,1.89
2023-02-09T11:01:34.449Z,1.98
2023-02-09T11:04:16.902Z,2.08
2023-02-09T11:07:10.130Z,2.14
2023-02-09T11:09:44.376Z,2.25
2023-02-09T11:12:12.982Z,2.34
2023-02-09T11:14:42.446Z,2.39
2023-02-09T11:17:30.818Z,2.46
2023-02-09T11:20:32.060Z,2.54
2023-02-09T11:23:33.308Z,2.65
2023-02-09T11:26:35.747Z,2.75
2023-02-09T11:29:24.194Z,2.84
2023-02-09T11:32:47.407Z,2.92
2023-02-09T11:35:18.912Z,3.00
2023-02-09T11:38:05.963Z,3.10
2023-02-09T11:40:49.093Z,3.20
2023-02-09T11:43:36.336Z,3.31
2023-02-09T11:46:17.255Z,3.38
2023-02-09T11:49:04.062Z,3.46
2023-02-09T11:51:38.169Z,3.54
2023-02-09T11:54:22.228Z,3.68
2023-02-09T11:57:11.730Z,3.73
2023-02-09T11:59:49.586Z,3.70
2023-02-09T12:02:53.921Z,3.86
2023-02-09T12:05:22.616Z,3.87
2023-02-09T12:08:22.317Z,3.95
2023-02-09T12:11:15.591Z,3.99
2023-02-09T12:14:12.791Z,4.05
2023-02-09T12:16:49.510Z,4.10
2023-02-09T12:19:34.202Z,4.15
2023-02-09T12:22:35.190Z,4.23
2023-02-09T12:25:16.701Z,4.28
2023-02-09T12:28:10.265Z,4.35
2023-02-09T12:30:40.127Z,4.36
2023-02-09T12:33:31.237Z,4.46
2023-02-09T12:36:10.183Z,4.53
2023-02-09T12:38:56.856Z,4.59
2023-02-09T12:41:41.059Z,4.63
2023-02-09T12:44:11.058Z,4.69
2023-02-09T12:46:55.628Z,4.76
2023-02-09T12:49:28.690Z,4.84
2023-02-09T12:52:01.756Z,4.93
2023-02-09T12:54:48.029Z,5.08
2023-02-09T12:57:15.958Z,5.16
2023-02-09T13:00:00.709Z,5.26
2023-02-09T13:02:52.478Z,5.33
2023-02-09T13:05:42.034Z,5.40
2023-02-09T13:08:13.089Z,5.45
2023-02-09T13:10:44.149Z,5.59
2023-02-09T13:13:10.939Z,5.58
2023-02-09T13:16:37.049Z,5.66
2023-02-09T13:19:10.004Z,5.74
2023-02-09T13:22:05.400Z,5.86
2023-02-09T13:24:44.785Z,5.96
2023-02-09T13:27:25.252Z,6.05
2023-02-09T13:29:55.307Z,6.14
2023-02-09T13:32:40.691Z,6.25
2023-02-09T13:35:32.884Z,6.37
2023-02-09T13:38:15.816Z,6.43
2023-02-09T13:40:50.804Z,6.56
2023-02-09T13:43:40.172Z,6.66
2023-02-09T13:46:07.171Z,6.72
2023-02-09T13:48:38.055Z,6.80
2023-02-09T13:51:18.543Z,6.91
2023-02-09T13:54:03.128Z,6.99
2023-02-09T13:56:32.309Z,7.06
2023-02-09T13:59:00.215Z,7.13
2023-02-09T14:01:36.523Z,7.24
2023-02-09T14:04:05.373Z,7.31
2023-02-09T14:07:11.456Z,7.38
2023-02-09T14:09:50.061Z,7.38
2023-02-09T14:12:49.582Z,7.42
2023-02-09T14:15:37.013Z,7.46
2023-02-09T14:18:20.068Z,7.49
2023-02-09T14:21:22.930Z,7.55
2023-02-09T14:24:20.198Z,7.62
2023-02-09T14:26:53.104Z,7.70
2023-02-09T14:29:37.992Z,7.79
2023-02-09T14:32:40.280Z,7.84
2023-02-09T14:35:30.089Z,7.93
2023-02-09T14:38:00.449Z,7.99
2023-02-09T14:40:27.526Z,8.07
2023-02-09T14:43:27.226Z,8.23
2023-02-09T14:46:01.801Z,8.29
2023-02-09T14:48:30.420Z,8.33
2023-02-09T14:51:10.163Z,8.39
2023-02-09T14:53:37.197Z,8.42
2023-02-09T14:56:04.362Z,8.36
2023-02-09T14:58:33.723Z,8.34
2023-02-09T15:01:02.754Z,8.32
2023-02-09T15:03:29.791Z,8.30
2023-02-09T15:06:02.841Z,8.27
2023-02-09T15:08:35.069Z,8.20
2023-02-09T15:11:28.927Z,8.10
2023-02-09T15:14:03.843Z,7.96
2023-02-09T15:16:31.768Z,7.76
2023-02-09T15:18:58.991Z,7.61
2023-02-09T15:21:25.892Z,7.47
2023-02-09T15:23:52.880Z,7.31
2023-02-09T15:26:22.620Z,7.18
2023-02-09T15:28:49.757Z,7.03
2023-02-09T15:31:16.758Z,6.91
2023-02-09T15:33:43.838Z,6.76
2023-02-09T15:36:18.143Z,6.66
2023-02-09T15:38:45.089Z,6.57
2023-02-09T15:41:30.556Z,6.50
2023-02-09T15:44:16.165Z,6.40
2023-02-09T15:47:04.500Z,6.32
2023-02-09T15:49:31.899Z,6.24
2023-02-09T15:51:58.832Z,6.18
2023-02-09T15:54:31.668Z,6.09
2023-02-09T15:57:00.250Z,5.98
2023-02-09T15:59:27.142Z,5.88
2023-02-09T16:01:54.084Z,5.77
2023-02-09T16:04:21.014Z,5.60
2023-02-09T16:06:53.923Z,5.48
2023-02-09T16:09:27.657Z,5.35
2023-02-09T16:11:54.871Z,5.18
2023-02-09T16:14:26.049Z,5.04
2023-02-09T16:16:53.138Z,4.88
2023-02-09T16:19:21.189Z,4.75
2023-02-09T16:21:54.007Z,4.64
2023-02-09T16:24:33.467Z,4.53
2023-02-09T16:27:04.411Z,4.41
2023-02-09T16:29:31.325Z,4.29
2023-02-09T16:31:58.226Z,4.18
2023-02-09T16:34:25.164Z,4.07
2023-02-09T16:36:52.154Z,3.95
2023-02-09T16:39:21.926Z,3.79
2023-02-09T16:41:51.638Z,3.62
2023-02-09T16:44:23.304Z,3.46
2023-02-09T16:46:56.360Z,3.28
2023-02-09T16:49:34.784Z,3.14
2023-02-09T16:52:11.662Z,2.99
2023-02-09T16:54:46.914Z,2.85
2023-02-09T16:57:18.133Z,2.70
2023-02-09T16:59:45.592Z,2.59
2023-02-09T17:02:36.025Z,2.46
2023-02-09T17:05:19.029Z,2.35
2023-02-09T17:07:54.606Z,2.22
2023-02-09T17:10:28.664Z,2.11
2023-02-09T17:12:55.757Z,2.02
2023-02-09T17:15:31.019Z,1.93
2023-02-09T17:18:07.216Z,1.85
2023-02-09T17:20:42.989Z,1.78
2023-02-09T17:23:21.360Z,1.72
2023-02-09T17:25:51.485Z,1.66
2023-02-09T17:28:19.268Z,1.60
2023-02-09T17:30:47.892Z,1.55
2023-02-09T17:33:34.392Z,1.51
2023-02-09T17:38:50.506Z,1.42
2023-02-09T17:41:28.202Z,1.38
2023-02-09T17:43:58.816Z,1.34
2023-02-09T17:46:27.812Z,1.32
2023-02-09T17:48:54.787Z,1.28
2023-02-09T17:51:37.328Z,1.26
2023-02-09T17:54:06.038Z,1.22
2023-02-09T17:56:33.434Z,1.20
2023-02-09T17:59:02.976Z,1.17
2023-02-09T18:01:31.774Z,1.15
2023-02-09T18:04:01.987Z,1.12
2023-02-09T18:06:39.728Z,1.10
2023-02-09T18:09:10.806Z,1.06
2023-02-09T18:11:57.903Z,1.05
2023-02-09T18:14:26.495Z,1.02
2023-02-09T18:16:55.012Z,1.00
2023-02-09T18:19:23.969Z,0.98
2023-02-09T18:21:59.806Z,0.97
2023-02-09T18:24:30.918Z,0.95
2023-02-09T18:26:57.995Z,0.94
2023-02-09T18:29:31.623Z,0.93
2023-02-09T18:32:00.698Z,0.90
2023-02-09T18:34:28.433Z,0.90
2023-02-09T18:36:55.702Z,0.91
2023-02-09T18:39:22.723Z,0.90
2023-02-09T18:41:54.067Z,0.91
2023-02-09T18:44:28.910Z,0.90
2023-02-09T18:47:00.606Z,0.89
2023-02-09T18:49:28.125Z,0.89
2023-02-09T18:51:56.935Z,0.88
2023-02-09T18:54:23.917Z,0.87
2023-02-09T18:56:52.675Z,0.86
2023-02-09T18:59:19.630Z,0.84
2023-02-09T19:01:46.730Z,0.81
2023-02-09T19:04:13.747Z,0.80
2023-02-09T19:06:40.675Z,0.77
2023-02-09T19:09:07.668Z,0.75
2023-02-09T19:11:35.629Z,0.73
2023-02-09T19:14:20.836Z,0.70
2023-02-09T19:16:47.753Z,0.67
2023-02-09T19:19:16.043Z,0.64
2023-02-09T19:21:42.975Z,0.62
2023-02-09T19:24:09.886Z,0.60
2023-02-09T19:26:36.819Z,0.58
2023-02-09T19:29:03.722Z,0.58
2023-02-09T19:31:30.709Z,0.56
2023-02-09T19:33:57.909Z,0.55
2023-02-09T19:36:27.786Z,0.54
2023-02-09T19:38:56.253Z,0.56
2023-02-09T19:41:25.446Z,0.56
2023-02-09T19:43:57.327Z,0.58
2023-02-09T19:46:25.398Z,0.58
2023-02-09T19:48:53.756Z,0.59
2023-02-09T19:51:21.165Z,0.60
2023-02-09T19:53:48.524Z,0.61
2023-02-09T19:56:19.240Z,0.62
2023-02-09T19:58:46.719Z,0.63
2023-02-09T20:01:13.632Z,0.62
2023-02-09T20:03:40.599Z,0.63
2023-02-09T20:06:10.700Z,0.63
2023-02-09T20:08:38.165Z,0.64
2023-02-09T20:11:16.645Z,0.65
2023-02-09T20:13:43.686Z,0.67
2023-02-09T20:16:16.817Z,0.67
2023-02-09T20:18:44.523Z,0.69
2023-02-09T20:21:12.435Z,0.71
2023-02-09T20:23:39.351Z,0.73
2023-02-09T20:26:12.690Z,0.76
2023-02-09T20:28:39.849Z,0.79
2023-02-09T20:31:08.050Z,0.80
2023-02-09T20:33:37.538Z,0.82
2023-02-09T20:36:09.164Z,0.84
2023-02-09T20:38:37.213Z,0.86
2023-02-09T20:41:10.423Z,0.88
2023-02-09T20:43:56.658Z,0.93
2023-02-09T20:46:45.094Z,0.96
2023-02-09T20:49:14.784Z,0.97
2023-02-09T20:51:42.059Z,0.99
2023-02-09T20:54:09.435Z,1.00
2023-02-09T20:56:36.607Z,1.00
2023-02-09T20:59:05.618Z,1.00
2023-02-09T21:01:33.015Z,1.00
2023-02-09T21:04:00.370Z,0.98
2023-02-09T21:06:27.881Z,0.96
2023-02-09T21:08:55.277Z,0.93
2023-02-09T21:11:22.315Z,0.93
2023-02-09T21:13:49.245Z,0.92
2023-02-09T21:16:16.556Z,0.91
2023-02-09T21:18:45.658Z,0.90
2023-02-09T21:21:16.797Z,0.91
2023-02-09T21:23:44.236Z,0.90
2023-02-09T21:26:16.461Z,0.89
2023-02-09T21:28:43.961Z,0.88
2023-02-09T21:31:17.055Z,0.85
2023-02-09T21:33:44.302Z,0.83
2023-02-09T21:36:11.283Z,0.81
2023-02-09T21:38:41.439Z,0.80
2023-02-09T21:41:37.422Z,0.77
2023-02-09T21:44:05.779Z,0.74
2023-02-09T21:46:34.432Z,0.72
2023-02-09T21:49:01.691Z,0.69
2023-02-09T21:51:28.603Z,0.66
2023-02-09T21:53:55.578Z,0.63
2023-02-09T21:56:22.556Z,0.58
2023-02-09T21:58:49.558Z,0.55
2023-02-09T22:01:16.637Z,0.51
2023-02-09T22:03:43.891Z,0.50
2023-02-09T22:06:11.220Z,0.47
2023-02-09T22:08:38.159Z,0.44
2023-02-09T22:11:06.136Z,0.41
2023-02-09T22:13:33.977Z,0.36
2023-02-09T22:16:05.883Z,0.31
2023-02-09T22:18:33.378Z,0.28
2023-02-09T22:21:00.451Z,0.22
2023-02-09T22:23:27.419Z,0.21
2023-02-09T22:26:02.173Z,0.16
2023-02-09T22:28:29.365Z,0.14
2023-02-09T22:30:56.958Z,0.12
2023-02-09T22:33:24.137Z,0.08
2023-02-09T22:35:51.060Z,0.05
2023-02-09T22:38:17.996Z,0.02
2023-02-09T22:40:44.907Z,0.01
2023-02-09T22:43:11.792Z,-0.03
2023-02-09T22:45:38.689Z,-0.05
2023-02-09T22:48:05.778Z,-0.06
2023-02-09T22:50:32.799Z,-0.05
2023-02-09T22:52:59.792Z,-0.04
2023-02-09T22:55:26.714Z,-0.03
2023-02-09T22:57:53.653Z,-0.03
2023-02-09T23:00:20.671Z,-0.03
2023-02-09T23:02:48.725Z,-0.03
2023-02-09T23:05:15.707Z,-0.02
2023-02-09T23:07:45.034Z,-0.03
2023-02-09T23:10:12.741Z,-0.04
2023-02-09T23:12:39.755Z,-0.06
2023-02-09T23:15:07.525Z,-0.08
2023-02-09T23:17:34.472Z,-0.08
2023-02-09T23:20:01.363Z,-0.14
2023-02-09T23:22:28.277Z,-0.16
2023-02-09T23:24:55.217Z,-0.19
2023-02-09T23:27:22.159Z,-0.23
2023-02-09T23:29:49.104Z,-0.26
2023-02-09T23:32:16.005Z,-0.30
2023-02-09T23:34:42.959Z,-0.33
2023-02-09T23:37:18.564Z,-0.37
2023-02-09T23:39:55.788Z,-0.41
2023-02-09T23:42:22.779Z,-0.43
2023-02-09T23:44:49.686Z,-0.46
2023-02-09T23:47:16.703Z,-0.47
2023-02-09T23:49:43.666Z,-0.49
2023-02-09T23:52:10.608Z,-0.50
2023-02-09T23:54:37.526Z,-0.51
2023-02-09T23:57:04.458Z,-0.54
2023-02-09T23:59:31.379Z,-0.57
